Terminal Aerodrome Forecast
Issued by NWS Tampa Bay Area, FL

Home | Current Version | Previous Version | Text Only | Print | Product List | Glossary On
Versions: 1 2 3 4 5 6 7 8 9 10 11 12 13 14 15 16
720
FTUS42 KTBW 270523
TAFSRQ
TAF
KSRQ 270523Z 2706/2806 VRB04KT P6SM FEW020 SCT200
     FM271300 27005KT P6SM SCT020 SCT200
     FM271700 28010KT P6SM VCTS SCT030CB BKN120
     FM272100 29009KT P6SM SCT030 BKN200
     FM280100 VRB05KT P6SM FEW030 BKN200=

USA.gov is the U.S. government's official web portal to all federal, state and local government web resources and services.